sensor_id;sensor_type;location;lat;lon;timestamp;P1;durP1;ratioP1;P2;durP2;ratioP2
67665;SDS011;54448;51.472;-2.574;2023-04-24T00:00:35;23.70;;;11.80;;
67665;SDS011;54448;51.472;-2.574;2023-04-24T00:03:00;21.83;;;10.63;;
67665;SDS011;54448;51.472;-2.574;2023-04-24T00:05:28;21.15;;;10.48;;
67665;SDS011;54448;51.472;-2.574;2023-04-24T00:07:53;20.10;;;10.98;;
67665;SDS011;54448;51.472;-2.574;2023-04-24T00:10:19;20.83;;;10.00;;
67665;SDS011;54448;51.472;-2.574;2023-04-24T00:12:44;20.83;;;10.05;;
67665;SDS011;54448;51.472;-2.574;2023-04-24T00:15:10;25.63;;;10.48;;
67665;SDS011;54448;51.472;-2.574;2023-04-24T00:17:35;19.85;;;9.98;;
67665;SDS011;54448;51.472;-2.574;2023-04-24T00:20:01;25.88;;;10.45;;
67665;SDS011;54448;51.472;-2.574;2023-04-24T00:22:29;22.00;;;10.35;;
67665;SDS011;54448;51.472;-2.574;2023-04-24T00:24:55;20.33;;;9.98;;
67665;SDS011;54448;51.472;-2.574;2023-04-24T00:27:20;24.65;;;9.98;;
67665;SDS011;54448;51.472;-2.574;2023-04-24T00:29:46;21.60;;;9.65;;
67665;SDS011;54448;51.472;-2.574;2023-04-24T00:32:12;21.23;;;10.07;;
67665;SDS011;54448;51.472;-2.574;2023-04-24T00:34:37;25.80;;;9.80;;
67665;SDS011;54448;51.472;-2.574;2023-04-24T00:37:02;19.92;;;9.15;;
67665;SDS011;54448;51.472;-2.574;2023-04-24T00:39:28;20.30;;;8.82;;
67665;SDS011;54448;51.472;-2.574;2023-04-24T00:41:53;23.10;;;9.50;;
67665;SDS011;54448;51.472;-2.574;2023-04-24T00:44:18;20.33;;;9.20;;
67665;SDS011;54448;51.472;-2.574;2023-04-24T00:46:44;20.13;;;9.63;;
67665;SDS011;54448;51.472;-2.574;2023-04-24T00:49:11;16.48;;;8.43;;
67665;SDS011;54448;51.472;-2.574;2023-04-24T00:51:37;18.25;;;8.50;;
67665;SDS011;54448;51.472;-2.574;2023-04-24T00:54:02;15.98;;;8.73;;
67665;SDS011;54448;51.472;-2.574;2023-04-24T00:56:27;15.02;;;7.90;;
67665;SDS011;54448;51.472;-2.574;2023-04-24T00:58:53;13.63;;;7.68;;
67665;SDS011;54448;51.472;-2.574;2023-04-24T01:01:19;14.43;;;7.57;;
67665;SDS011;54448;51.472;-2.574;2023-04-24T01:03:46;14.60;;;7.45;;
67665;SDS011;54448;51.472;-2.574;2023-04-24T01:06:11;15.60;;;7.70;;
67665;SDS011;54448;51.472;-2.574;2023-04-24T01:08:37;14.50;;;7.03;;
67665;SDS011;54448;51.472;-2.574;2023-04-24T01:11:03;14.15;;;7.40;;
67665;SDS011;54448;51.472;-2.574;2023-04-24T01:13:29;14.15;;;7.40;;
67665;SDS011;54448;51.472;-2.574;2023-04-24T01:15:56;15.25;;;7.18;;
67665;SDS011;54448;51.472;-2.574;2023-04-24T01:18:21;14.50;;;6.97;;
67665;SDS011;54448;51.472;-2.574;2023-04-24T01:20:47;14.50;;;6.72;;
67665;SDS011;54448;51.472;-2.574;2023-04-24T01:23:16;17.45;;;6.78;;
67665;SDS011;54448;51.472;-2.574;2023-04-24T01:25:41;15.80;;;7.03;;
67665;SDS011;54448;51.472;-2.574;2023-04-24T01:28:07;12.70;;;6.30;;
67665;SDS011;54448;51.472;-2.574;2023-04-24T01:30:33;12.98;;;6.60;;
67665;SDS011;54448;51.472;-2.574;2023-04-24T01:32:58;13.90;;;6.65;;
67665;SDS011;54448;51.472;-2.574;2023-04-24T01:35:23;14.52;;;6.75;;
67665;SDS011;54448;51.472;-2.574;2023-04-24T01:37:49;12.52;;;6.57;;
67665;SDS011;54448;51.472;-2.574;2023-04-24T01:40:15;11.95;;;6.32;;
67665;SDS011;54448;51.472;-2.574;2023-04-24T01:42:40;14.02;;;5.93;;
67665;SDS011;54448;51.472;-2.574;2023-04-24T01:45:06;11.25;;;6.25;;
67665;SDS011;54448;51.472;-2.574;2023-04-24T01:47:35;14.30;;;6.22;;
67665;SDS011;54448;51.472;-2.574;2023-04-24T01:50:01;15.18;;;6.28;;
67665;SDS011;54448;51.472;-2.574;2023-04-24T01:52:27;11.68;;;5.90;;
67665;SDS011;54448;51.472;-2.574;2023-04-24T01:54:53;15.20;;;6.03;;
67665;SDS011;54448;51.472;-2.574;2023-04-24T01:57:20;13.43;;;6.00;;
67665;SDS011;54448;51.472;-2.574;2023-04-24T01:59:46;10.63;;;6.00;;
67665;SDS011;54448;51.472;-2.574;2023-04-24T02:02:11;13.82;;;6.32;;
67665;SDS011;54448;51.472;-2.574;2023-04-24T02:04:36;13.95;;;5.95;;
67665;SDS011;54448;51.472;-2.574;2023-04-24T02:07:02;12.75;;;6.15;;
67665;SDS011;54448;51.472;-2.574;2023-04-24T02:09:27;16.73;;;6.95;;
67665;SDS011;54448;51.472;-2.574;2023-04-24T02:11:53;16.30;;;6.50;;
67665;SDS011;54448;51.472;-2.574;2023-04-24T02:14:18;13.57;;;6.43;;
67665;SDS011;54448;51.472;-2.574;2023-04-24T02:16:43;13.73;;;7.07;;
67665;SDS011;54448;51.472;-2.574;2023-04-24T02:19:09;13.95;;;6.53;;
67665;SDS011;54448;51.472;-2.574;2023-04-24T02:21:35;14.60;;;7.15;;
67665;SDS011;54448;51.472;-2.574;2023-04-24T02:24:00;18.80;;;7.85;;
67665;SDS011;54448;51.472;-2.574;2023-04-24T02:26:25;13.07;;;7.03;;
67665;SDS011;54448;51.472;-2.574;2023-04-24T02:28:51;14.85;;;6.72;;
67665;SDS011;54448;51.472;-2.574;2023-04-24T02:31:16;16.42;;;6.53;;
67665;SDS011;54448;51.472;-2.574;2023-04-24T02:33:42;16.20;;;7.30;;
67665;SDS011;54448;51.472;-2.574;2023-04-24T02:36:07;17.65;;;7.07;;
67665;SDS011;54448;51.472;-2.574;2023-04-24T02:38:32;18.23;;;7.50;;
67665;SDS011;54448;51.472;-2.574;2023-04-24T02:40:58;18.67;;;7.03;;
67665;SDS011;54448;51.472;-2.574;2023-04-24T02:43:23;14.38;;;7.35;;
67665;SDS011;54448;51.472;-2.574;2023-04-24T02:45:48;17.67;;;7.78;;
67665;SDS011;54448;51.472;-2.574;2023-04-24T02:48:14;14.50;;;7.35;;
67665;SDS011;54448;51.472;-2.574;2023-04-24T02:50:40;15.25;;;6.97;;
67665;SDS011;54448;51.472;-2.574;2023-04-24T02:53:05;18.08;;;7.65;;
67665;SDS011;54448;51.472;-2.574;2023-04-24T02:55:30;16.40;;;7.53;;
67665;SDS011;54448;51.472;-2.574;2023-04-24T02:57:56;17.33;;;7.45;;
67665;SDS011;54448;51.472;-2.574;2023-04-24T03:00:21;16.00;;;7.68;;
67665;SDS011;54448;51.472;-2.574;2023-04-24T03:02:46;17.77;;;7.18;;
67665;SDS011;54448;51.472;-2.574;2023-04-24T03:05:12;13.13;;;7.35;;
67665;SDS011;54448;51.472;-2.574;2023-04-24T03:07:38;18.10;;;7.90;;
67665;SDS011;54448;51.472;-2.574;2023-04-24T03:10:04;19.55;;;8.45;;
67665;SDS011;54448;51.472;-2.574;2023-04-24T03:12:30;20.42;;;8.27;;
67665;SDS011;54448;51.472;-2.574;2023-04-24T03:14:56;20.75;;;7.82;;
67665;SDS011;54448;51.472;-2.574;2023-04-24T03:17:21;24.40;;;7.85;;
67665;SDS011;54448;51.472;-2.574;2023-04-24T03:19:46;15.98;;;7.47;;
67665;SDS011;54448;51.472;-2.574;2023-04-24T03:22:12;15.80;;;7.35;;
67665;SDS011;54448;51.472;-2.574;2023-04-24T03:24:37;16.52;;;7.65;;
67665;SDS011;54448;51.472;-2.574;2023-04-24T03:27:02;21.05;;;8.20;;
67665;SDS011;54448;51.472;-2.574;2023-04-24T03:29:28;20.05;;;7.80;;
67665;SDS011;54448;51.472;-2.574;2023-04-24T03:31:53;19.50;;;8.25;;
67665;SDS011;54448;51.472;-2.574;2023-04-24T03:34:19;16.05;;;7.25;;
67665;SDS011;54448;51.472;-2.574;2023-04-24T03:36:44;15.75;;;7.22;;
67665;SDS011;54448;51.472;-2.574;2023-04-24T03:39:12;16.30;;;8.35;;
67665;SDS011;54448;51.472;-2.574;2023-04-24T03:41:37;16.05;;;8.10;;
67665;SDS011;54448;51.472;-2.574;2023-04-24T03:44:03;17.60;;;8.27;;
67665;SDS011;54448;51.472;-2.574;2023-04-24T03:46:28;17.05;;;8.55;;
67665;SDS011;54448;51.472;-2.574;2023-04-24T03:48:53;17.95;;;8.90;;
67665;SDS011;54448;51.472;-2.574;2023-04-24T03:51:19;15.77;;;8.27;;
67665;SDS011;54448;51.472;-2.574;2023-04-24T03:53:44;19.67;;;8.75;;
67665;SDS011;54448;51.472;-2.574;2023-04-24T03:56:09;16.95;;;8.35;;
67665;SDS011;54448;51.472;-2.574;2023-04-24T03:58:35;14.70;;;8.25;;
67665;SDS011;54448;51.472;-2.574;2023-04-24T04:01:00;21.27;;;8.85;;
67665;SDS011;54448;51.472;-2.574;2023-04-24T04:03:25;16.90;;;8.23;;
67665;SDS011;54448;51.472;-2.574;2023-04-24T04:05:51;20.15;;;9.00;;
67665;SDS011;54448;51.472;-2.574;2023-04-24T04:08:16;21.00;;;8.80;;
67665;SDS011;54448;51.472;-2.574;2023-04-24T04:10:41;18.75;;;8.75;;
67665;SDS011;54448;51.472;-2.574;2023-04-24T04:13:07;20.23;;;8.05;;
67665;SDS011;54448;51.472;-2.574;2023-04-24T04:15:32;18.52;;;8.68;;
67665;SDS011;54448;51.472;-2.574;2023-04-24T04:17:57;20.52;;;8.32;;
67665;SDS011;54448;51.472;-2.574;2023-04-24T04:20:23;18.50;;;8.35;;
67665;SDS011;54448;51.472;-2.574;2023-04-24T04:22:48;18.08;;;8.68;;
67665;SDS011;54448;51.472;-2.574;2023-04-24T04:25:13;21.20;;;9.63;;
67665;SDS011;54448;51.472;-2.574;2023-04-24T04:27:39;21.48;;;10.32;;
67665;SDS011;54448;51.472;-2.574;2023-04-24T04:30:06;22.60;;;10.15;;
67665;SDS011;54448;51.472;-2.574;2023-04-24T04:32:33;21.83;;;10.27;;
67665;SDS011;54448;51.472;-2.574;2023-04-24T04:35:02;30.23;;;10.80;;
67665;SDS011;54448;51.472;-2.574;2023-04-24T04:37:31;20.77;;;9.73;;
67665;SDS011;54448;51.472;-2.574;2023-04-24T04:39:58;23.80;;;10.93;;
67665;SDS011;54448;51.472;-2.574;2023-04-24T04:42:24;22.98;;;10.32;;
67665;SDS011;54448;51.472;-2.574;2023-04-24T04:44:50;24.85;;;10.65;;
67665;SDS011;54448;51.472;-2.574;2023-04-24T04:47:16;25.02;;;11.27;;
67665;SDS011;54448;51.472;-2.574;2023-04-24T04:49:42;26.10;;;11.23;;
67665;SDS011;54448;51.472;-2.574;2023-04-24T04:52:08;25.52;;;10.98;;
67665;SDS011;54448;51.472;-2.574;2023-04-24T04:54:33;27.10;;;11.73;;
67665;SDS011;54448;51.472;-2.574;2023-04-24T04:56:58;24.70;;;12.38;;
67665;SDS011;54448;51.472;-2.574;2023-04-24T04:59:25;24.75;;;11.65;;
67665;SDS011;54448;51.472;-2.574;2023-04-24T05:01:50;28.73;;;11.95;;
67665;SDS011;54448;51.472;-2.574;2023-04-24T05:04:16;24.23;;;11.77;;
67665;SDS011;54448;51.472;-2.574;2023-04-24T05:06:41;23.00;;;11.63;;
67665;SDS011;54448;51.472;-2.574;2023-04-24T05:09:06;25.88;;;12.20;;
67665;SDS011;54448;51.472;-2.574;2023-04-24T05:11:32;25.67;;;12.35;;
67665;SDS011;54448;51.472;-2.574;2023-04-24T05:13:57;22.25;;;11.13;;
67665;SDS011;54448;51.472;-2.574;2023-04-24T05:16:23;23.83;;;12.40;;
67665;SDS011;54448;51.472;-2.574;2023-04-24T05:18:48;29.73;;;12.27;;
67665;SDS011;54448;51.472;-2.574;2023-04-24T05:21:13;28.60;;;12.52;;
67665;SDS011;54448;51.472;-2.574;2023-04-24T05:23:39;25.05;;;11.32;;
67665;SDS011;54448;51.472;-2.574;2023-04-24T05:26:04;26.08;;;12.40;;
67665;SDS011;54448;51.472;-2.574;2023-04-24T05:28:30;28.25;;;12.90;;
67665;SDS011;54448;51.472;-2.574;2023-04-24T05:30:56;30.50;;;13.32;;
67665;SDS011;54448;51.472;-2.574;2023-04-24T05:33:21;28.70;;;13.10;;
67665;SDS011;54448;51.472;-2.574;2023-04-24T05:35:47;31.88;;;13.57;;
67665;SDS011;54448;51.472;-2.574;2023-04-24T05:38:13;29.50;;;14.07;;
67665;SDS011;54448;51.472;-2.574;2023-04-24T05:40:39;27.45;;;13.05;;
67665;SDS011;54448;51.472;-2.574;2023-04-24T05:43:05;30.23;;;13.18;;
67665;SDS011;54448;51.472;-2.574;2023-04-24T05:45:30;25.75;;;13.15;;
67665;SDS011;54448;51.472;-2.574;2023-04-24T05:47:55;30.80;;;14.30;;
67665;SDS011;54448;51.472;-2.574;2023-04-24T05:50:21;27.23;;;12.27;;
67665;SDS011;54448;51.472;-2.574;2023-04-24T05:52:46;33.70;;;12.98;;
67665;SDS011;54448;51.472;-2.574;2023-04-24T05:55:11;27.92;;;12.68;;
67665;SDS011;54448;51.472;-2.574;2023-04-24T05:57:37;28.02;;;13.15;;
67665;SDS011;54448;51.472;-2.574;2023-04-24T06:00:03;30.30;;;13.25;;
67665;SDS011;54448;51.472;-2.574;2023-04-24T06:02:29;30.25;;;12.57;;
67665;SDS011;54448;51.472;-2.574;2023-04-24T06:04:57;27.73;;;13.35;;
67665;SDS011;54448;51.472;-2.574;2023-04-24T06:07:25;28.10;;;12.40;;
67665;SDS011;54448;51.472;-2.574;2023-04-24T06:09:53;27.60;;;12.80;;
67665;SDS011;54448;51.472;-2.574;2023-04-24T06:12:19;26.92;;;13.35;;
67665;SDS011;54448;51.472;-2.574;2023-04-24T06:14:45;26.48;;;12.82;;
67665;SDS011;54448;51.472;-2.574;2023-04-24T06:17:10;28.60;;;12.93;;
67665;SDS011;54448;51.472;-2.574;2023-04-24T06:19:35;34.42;;;13.52;;
67665;SDS011;54448;51.472;-2.574;2023-04-24T06:22:01;25.30;;;12.27;;
67665;SDS011;54448;51.472;-2.574;2023-04-24T06:24:29;28.45;;;12.90;;
67665;SDS011;54448;51.472;-2.574;2023-04-24T06:26:55;24.27;;;12.25;;
67665;SDS011;54448;51.472;-2.574;2023-04-24T06:29:22;26.13;;;12.50;;
67665;SDS011;54448;51.472;-2.574;2023-04-24T06:31:47;25.73;;;12.20;;
67665;SDS011;54448;51.472;-2.574;2023-04-24T06:34:12;27.90;;;12.32;;
67665;SDS011;54448;51.472;-2.574;2023-04-24T06:36:38;25.95;;;12.38;;
67665;SDS011;54448;51.472;-2.574;2023-04-24T06:39:03;20.83;;;11.35;;
67665;SDS011;54448;51.472;-2.574;2023-04-24T06:41:29;23.58;;;11.30;;
67665;SDS011;54448;51.472;-2.574;2023-04-24T06:43:54;22.15;;;11.18;;
67665;SDS011;54448;51.472;-2.574;2023-04-24T06:46:20;19.75;;;10.77;;
67665;SDS011;54448;51.472;-2.574;2023-04-24T06:48:48;24.83;;;11.38;;
67665;SDS011;54448;51.472;-2.574;2023-04-24T06:51:14;25.23;;;10.80;;
67665;SDS011;54448;51.472;-2.574;2023-04-24T06:53:39;20.17;;;11.02;;
67665;SDS011;54448;51.472;-2.574;2023-04-24T06:56:05;22.27;;;12.07;;
67665;SDS011;54448;51.472;-2.574;2023-04-24T06:58:30;21.17;;;11.18;;
67665;SDS011;54448;51.472;-2.574;2023-04-24T07:00:55;29.00;;;12.00;;
67665;SDS011;54448;51.472;-2.574;2023-04-24T07:03:21;27.48;;;10.88;;
67665;SDS011;54448;51.472;-2.574;2023-04-24T07:05:46;20.05;;;10.32;;
67665;SDS011;54448;51.472;-2.574;2023-04-24T07:08:12;21.00;;;9.82;;
67665;SDS011;54448;51.472;-2.574;2023-04-24T07:10:38;20.38;;;10.40;;
67665;SDS011;54448;51.472;-2.574;2023-04-24T07:13:04;20.70;;;10.13;;
67665;SDS011;54448;51.472;-2.574;2023-04-24T07:15:29;23.10;;;10.70;;
67665;SDS011;54448;51.472;-2.574;2023-04-24T07:17:55;21.85;;;10.48;;
67665;SDS011;54448;51.472;-2.574;2023-04-24T07:20:21;20.77;;;9.77;;
67665;SDS011;54448;51.472;-2.574;2023-04-24T07:22:46;18.45;;;10.10;;
67665;SDS011;54448;51.472;-2.574;2023-04-24T07:25:13;20.35;;;10.50;;
67665;SDS011;54448;51.472;-2.574;2023-04-24T07:27:38;19.50;;;9.98;;
67665;SDS011;54448;51.472;-2.574;2023-04-24T07:30:03;18.55;;;9.90;;
67665;SDS011;54448;51.472;-2.574;2023-04-24T07:32:29;19.63;;;11.27;;
67665;SDS011;54448;51.472;-2.574;2023-04-24T07:34:55;18.67;;;10.55;;
67665;SDS011;54448;51.472;-2.574;2023-04-24T07:37:20;20.63;;;10.20;;
67665;SDS011;54448;51.472;-2.574;2023-04-24T07:39:46;20.65;;;10.15;;
67665;SDS011;54448;51.472;-2.574;2023-04-24T07:42:11;21.67;;;11.10;;
67665;SDS011;54448;51.472;-2.574;2023-04-24T07:44:36;20.58;;;9.27;;
67665;SDS011;54448;51.472;-2.574;2023-04-24T07:47:02;18.02;;;9.50;;
67665;SDS011;54448;51.472;-2.574;2023-04-24T07:49:27;18.25;;;9.07;;
67665;SDS011;54448;51.472;-2.574;2023-04-24T07:51:52;18.15;;;9.02;;
67665;SDS011;54448;51.472;-2.574;2023-04-24T07:54:18;21.20;;;10.85;;
67665;SDS011;54448;51.472;-2.574;2023-04-24T07:56:44;18.05;;;8.07;;
67665;SDS011;54448;51.472;-2.574;2023-04-24T07:59:10;15.10;;;7.65;;
67665;SDS011;54448;51.472;-2.574;2023-04-24T08:01:36;13.80;;;6.93;;
67665;SDS011;54448;51.472;-2.574;2023-04-24T08:04:01;13.57;;;6.03;;
67665;SDS011;54448;51.472;-2.574;2023-04-24T08:06:27;10.05;;;5.65;;
67665;SDS011;54448;51.472;-2.574;2023-04-24T08:08:56;13.63;;;6.60;;
67665;SDS011;54448;51.472;-2.574;2023-04-24T08:11:23;12.98;;;6.70;;
67665;SDS011;54448;51.472;-2.574;2023-04-24T08:13:49;12.32;;;6.50;;
67665;SDS011;54448;51.472;-2.574;2023-04-24T08:16:14;12.20;;;6.57;;
67665;SDS011;54448;51.472;-2.574;2023-04-24T08:18:40;14.30;;;5.88;;
67665;SDS011;54448;51.472;-2.574;2023-04-24T08:21:05;14.18;;;6.35;;
67665;SDS011;54448;51.472;-2.574;2023-04-24T08:23:31;12.80;;;6.10;;
67665;SDS011;54448;51.472;-2.574;2023-04-24T08:25:56;14.75;;;6.75;;
67665;SDS011;54448;51.472;-2.574;2023-04-24T08:28:22;17.05;;;7.22;;
67665;SDS011;54448;51.472;-2.574;2023-04-24T08:30:48;16.05;;;7.88;;
67665;SDS011;54448;51.472;-2.574;2023-04-24T08:33:13;19.13;;;7.38;;
67665;SDS011;54448;51.472;-2.574;2023-04-24T08:35:39;17.70;;;7.75;;
67665;SDS011;54448;51.472;-2.574;2023-04-24T08:38:05;17.60;;;8.48;;
67665;SDS011;54448;51.472;-2.574;2023-04-24T08:40:31;24.60;;;9.25;;
67665;SDS011;54448;51.472;-2.574;2023-04-24T08:42:58;20.95;;;9.35;;
67665;SDS011;54448;51.472;-2.574;2023-04-24T08:45:24;21.65;;;10.32;;
67665;SDS011;54448;51.472;-2.574;2023-04-24T08:47:50;16.50;;;9.82;;
67665;SDS011;54448;51.472;-2.574;2023-04-24T08:50:18;21.42;;;10.45;;
67665;SDS011;54448;51.472;-2.574;2023-04-24T08:52:43;23.58;;;10.43;;
67665;SDS011;54448;51.472;-2.574;2023-04-24T08:55:09;20.60;;;11.10;;
67665;SDS011;54448;51.472;-2.574;2023-04-24T08:57:35;19.50;;;10.43;;
67665;SDS011;54448;51.472;-2.574;2023-04-24T09:00:03;20.55;;;10.02;;
67665;SDS011;54448;51.472;-2.574;2023-04-24T09:02:29;18.98;;;9.95;;
67665;SDS011;54448;51.472;-2.574;2023-04-24T09:04:56;23.05;;;10.13;;
67665;SDS011;54448;51.472;-2.574;2023-04-24T09:07:22;20.30;;;10.15;;
67665;SDS011;54448;51.472;-2.574;2023-04-24T09:09:50;24.80;;;10.40;;
67665;SDS011;54448;51.472;-2.574;2023-04-24T09:12:16;22.83;;;10.65;;
67665;SDS011;54448;51.472;-2.574;2023-04-24T09:14:42;20.88;;;10.90;;
67665;SDS011;54448;51.472;-2.574;2023-04-24T09:17:10;19.70;;;10.38;;
67665;SDS011;54448;51.472;-2.574;2023-04-24T09:19:36;23.65;;;11.75;;
67665;SDS011;54448;51.472;-2.574;2023-04-24T09:22:04;21.02;;;10.73;;
67665;SDS011;54448;51.472;-2.574;2023-04-24T09:24:31;23.50;;;12.10;;
67665;SDS011;54448;51.472;-2.574;2023-04-24T09:26:57;22.85;;;11.13;;
67665;SDS011;54448;51.472;-2.574;2023-04-24T09:29:29;20.63;;;9.63;;
67665;SDS011;54448;51.472;-2.574;2023-04-24T09:31:55;24.98;;;11.55;;
67665;SDS011;54448;51.472;-2.574;2023-04-24T09:34:27;29.20;;;14.55;;
67665;SDS011;54448;51.472;-2.574;2023-04-24T09:36:52;30.58;;;15.80;;
67665;SDS011;54448;51.472;-2.574;2023-04-24T09:39:18;31.80;;;16.02;;
67665;SDS011;54448;51.472;-2.574;2023-04-24T09:41:50;44.08;;;19.40;;
67665;SDS011;54448;51.472;-2.574;2023-04-24T09:44:24;45.10;;;21.48;;
67665;SDS011;54448;51.472;-2.574;2023-04-24T09:46:51;42.13;;;20.63;;
67665;SDS011;54448;51.472;-2.574;2023-04-24T09:49:23;40.35;;;18.92;;
67665;SDS011;54448;51.472;-2.574;2023-04-24T09:52:07;39.83;;;18.83;;
67665;SDS011;54448;51.472;-2.574;2023-04-24T09:54:36;41.63;;;17.80;;
67665;SDS011;54448;51.472;-2.574;2023-04-24T09:57:02;37.80;;;18.85;;
67665;SDS011;54448;51.472;-2.574;2023-04-24T09:59:28;44.97;;;18.38;;
67665;SDS011;54448;51.472;-2.574;2023-04-24T10:01:54;39.75;;;18.90;;
67665;SDS011;54448;51.472;-2.574;2023-04-24T10:06:52;37.38;;;18.13;;
67665;SDS011;54448;51.472;-2.574;2023-04-24T10:09:20;45.95;;;19.83;;
67665;SDS011;54448;51.472;-2.574;2023-04-24T10:11:47;39.38;;;18.08;;
67665;SDS011;54448;51.472;-2.574;2023-04-24T10:14:14;40.15;;;19.10;;
67665;SDS011;54448;51.472;-2.574;2023-04-24T10:16:43;41.20;;;18.02;;
67665;SDS011;54448;51.472;-2.574;2023-04-24T10:19:09;40.83;;;17.80;;
67665;SDS011;54448;51.472;-2.574;2023-04-24T10:21:36;39.20;;;18.80;;
67665;SDS011;54448;51.472;-2.574;2023-04-24T10:24:07;37.22;;;17.25;;
67665;SDS011;54448;51.472;-2.574;2023-04-24T10:26:33;33.10;;;16.00;;
67665;SDS011;54448;51.472;-2.574;2023-04-24T10:28:59;28.98;;;15.43;;
67665;SDS011;54448;51.472;-2.574;2023-04-24T10:31:27;31.33;;;16.10;;
67665;SDS011;54448;51.472;-2.574;2023-04-24T10:33:57;33.17;;;16.85;;
67665;SDS011;54448;51.472;-2.574;2023-04-24T10:36:23;33.58;;;17.27;;
67665;SDS011;54448;51.472;-2.574;2023-04-24T10:38:51;37.60;;;16.83;;
67665;SDS011;54448;51.472;-2.574;2023-04-24T10:41:18;35.80;;;17.85;;
67665;SDS011;54448;51.472;-2.574;2023-04-24T10:43:48;39.13;;;17.85;;
67665;SDS011;54448;51.472;-2.574;2023-04-24T10:46:29;34.17;;;16.60;;
67665;SDS011;54448;51.472;-2.574;2023-04-24T10:48:55;34.65;;;17.10;;
67665;SDS011;54448;51.472;-2.574;2023-04-24T10:51:24;34.90;;;16.08;;
67665;SDS011;54448;51.472;-2.574;2023-04-24T10:53:52;32.05;;;15.43;;
67665;SDS011;54448;51.472;-2.574;2023-04-24T10:56:17;32.80;;;16.60;;
67665;SDS011;54448;51.472;-2.574;2023-04-24T10:58:44;36.17;;;16.52;;
67665;SDS011;54448;51.472;-2.574;2023-04-24T11:01:32;36.47;;;16.48;;
67665;SDS011;54448;51.472;-2.574;2023-04-24T11:03:58;32.30;;;16.35;;
67665;SDS011;54448;51.472;-2.574;2023-04-24T11:06:32;26.90;;;15.32;;
67665;SDS011;54448;51.472;-2.574;2023-04-24T11:11:30;28.25;;;11.25;;
67665;SDS011;54448;51.472;-2.574;2023-04-24T11:18:50;16.90;;;9.02;;
67665;SDS011;54448;51.472;-2.574;2023-04-24T11:21:19;15.32;;;8.52;;
67665;SDS011;54448;51.472;-2.574;2023-04-24T11:23:45;17.73;;;8.95;;
67665;SDS011;54448;51.472;-2.574;2023-04-24T11:26:12;18.52;;;8.90;;
67665;SDS011;54448;51.472;-2.574;2023-04-24T11:28:48;23.33;;;9.40;;
67665;SDS011;54448;51.472;-2.574;2023-04-24T11:34:15;16.63;;;10.02;;
67665;SDS011;54448;51.472;-2.574;2023-04-24T11:36:47;25.67;;;10.73;;
67665;SDS011;54448;51.472;-2.574;2023-04-24T11:39:13;18.75;;;10.63;;
67665;SDS011;54448;51.472;-2.574;2023-04-24T11:41:39;18.55;;;10.23;;
67665;SDS011;54448;51.472;-2.574;2023-04-24T11:44:08;18.40;;;8.93;;
67665;SDS011;54448;51.472;-2.574;2023-04-24T11:46:34;16.52;;;9.75;;
67665;SDS011;54448;51.472;-2.574;2023-04-24T11:49:00;20.05;;;10.60;;
67665;SDS011;54448;51.472;-2.574;2023-04-24T11:51:26;19.35;;;11.15;;
67665;SDS011;54448;51.472;-2.574;2023-04-24T11:53:53;16.95;;;10.20;;
67665;SDS011;54448;51.472;-2.574;2023-04-24T11:56:19;14.45;;;9.02;;
67665;SDS011;54448;51.472;-2.574;2023-04-24T11:58:47;16.65;;;8.50;;
67665;SDS011;54448;51.472;-2.574;2023-04-24T12:01:12;12.50;;;7.35;;
67665;SDS011;54448;51.472;-2.574;2023-04-24T12:03:38;13.18;;;7.25;;
67665;SDS011;54448;51.472;-2.574;2023-04-24T12:08:35;12.48;;;5.45;;
67665;SDS011;54448;51.472;-2.574;2023-04-24T12:11:01;12.45;;;5.03;;
67665;SDS011;54448;51.472;-2.574;2023-04-24T12:13:27;13.25;;;5.47;;
67665;SDS011;54448;51.472;-2.574;2023-04-24T12:15:53;10.40;;;6.03;;
67665;SDS011;54448;51.472;-2.574;2023-04-24T12:18:18;11.25;;;5.55;;
67665;SDS011;54448;51.472;-2.574;2023-04-24T12:20:47;11.65;;;4.72;;
67665;SDS011;54448;51.472;-2.574;2023-04-24T12:23:12;8.77;;;5.40;;
67665;SDS011;54448;51.472;-2.574;2023-04-24T12:25:38;9.18;;;5.03;;
67665;SDS011;54448;51.472;-2.574;2023-04-24T12:30:30;12.65;;;5.53;;
67665;SDS011;54448;51.472;-2.574;2023-04-24T12:33:00;6.72;;;4.10;;
67665;SDS011;54448;51.472;-2.574;2023-04-24T12:35:28;8.00;;;3.80;;
67665;SDS011;54448;51.472;-2.574;2023-04-24T12:37:55;13.40;;;5.22;;
67665;SDS011;54448;51.472;-2.574;2023-04-24T12:40:20;11.60;;;5.85;;
67665;SDS011;54448;51.472;-2.574;2023-04-24T12:45:12;9.95;;;5.70;;
67665;SDS011;54448;51.472;-2.574;2023-04-24T12:47:38;10.63;;;5.70;;
67665;SDS011;54448;51.472;-2.574;2023-04-24T12:50:05;14.02;;;5.60;;
67665;SDS011;54448;51.472;-2.574;2023-04-24T12:52:32;13.77;;;6.40;;
67665;SDS011;54448;51.472;-2.574;2023-04-24T12:54:59;13.27;;;6.97;;
67665;SDS011;54448;51.472;-2.574;2023-04-24T12:57:25;13.75;;;6.47;;
67665;SDS011;54448;51.472;-2.574;2023-04-24T12:59:55;12.95;;;6.60;;
67665;SDS011;54448;51.472;-2.574;2023-04-24T13:02:21;14.50;;;7.00;;
67665;SDS011;54448;51.472;-2.574;2023-04-24T13:04:50;17.67;;;7.18;;
67665;SDS011;54448;51.472;-2.574;2023-04-24T13:07:16;10.85;;;6.03;;
67665;SDS011;54448;51.472;-2.574;2023-04-24T13:09:42;15.00;;;7.53;;
67665;SDS011;54448;51.472;-2.574;2023-04-24T13:12:09;11.80;;;6.75;;
67665;SDS011;54448;51.472;-2.574;2023-04-24T13:14:34;12.13;;;6.65;;
67665;SDS011;54448;51.472;-2.574;2023-04-24T13:17:00;9.88;;;6.45;;
67665;SDS011;54448;51.472;-2.574;2023-04-24T13:19:26;11.73;;;6.72;;
67665;SDS011;54448;51.472;-2.574;2023-04-24T13:21:52;12.93;;;7.18;;
67665;SDS011;54448;51.472;-2.574;2023-04-24T13:24:18;14.07;;;6.35;;
67665;SDS011;54448;51.472;-2.574;2023-04-24T13:26:44;9.48;;;5.70;;
67665;SDS011;54448;51.472;-2.574;2023-04-24T13:29:10;11.23;;;5.93;;
67665;SDS011;54448;51.472;-2.574;2023-04-24T13:31:35;12.05;;;6.50;;
67665;SDS011;54448;51.472;-2.574;2023-04-24T13:34:01;10.98;;;6.28;;
67665;SDS011;54448;51.472;-2.574;2023-04-24T13:36:27;11.15;;;5.72;;
67665;SDS011;54448;51.472;-2.574;2023-04-24T13:38:53;10.40;;;5.32;;
67665;SDS011;54448;51.472;-2.574;2023-04-24T13:41:18;11.27;;;5.70;;
67665;SDS011;54448;51.472;-2.574;2023-04-24T13:43:44;7.53;;;5.15;;
67665;SDS011;54448;51.472;-2.574;2023-04-24T13:46:09;10.82;;;5.45;;
67665;SDS011;54448;51.472;-2.574;2023-04-24T13:48:35;10.65;;;5.10;;
67665;SDS011;54448;51.472;-2.574;2023-04-24T13:51:00;10.52;;;5.28;;
67665;SDS011;54448;51.472;-2.574;2023-04-24T13:53:25;9.80;;;5.78;;
67665;SDS011;54448;51.472;-2.574;2023-04-24T13:55:51;10.27;;;6.00;;
67665;SDS011;54448;51.472;-2.574;2023-04-24T13:58:16;10.93;;;5.32;;
67665;SDS011;54448;51.472;-2.574;2023-04-24T14:00:42;12.20;;;5.35;;
67665;SDS011;54448;51.472;-2.574;2023-04-24T14:03:07;12.23;;;5.30;;
67665;SDS011;54448;51.472;-2.574;2023-04-24T14:05:33;8.32;;;5.05;;
67665;SDS011;54448;51.472;-2.574;2023-04-24T14:07:58;8.48;;;5.28;;
67665;SDS011;54448;51.472;-2.574;2023-04-24T14:10:23;11.55;;;5.60;;
67665;SDS011;54448;51.472;-2.574;2023-04-24T14:12:49;11.73;;;5.05;;
67665;SDS011;54448;51.472;-2.574;2023-04-24T14:15:14;9.88;;;5.15;;
67665;SDS011;54448;51.472;-2.574;2023-04-24T14:17:40;9.05;;;4.90;;
67665;SDS011;54448;51.472;-2.574;2023-04-24T14:20:05;10.95;;;4.28;;
67665;SDS011;54448;51.472;-2.574;2023-04-24T14:22:32;8.70;;;4.78;;
67665;SDS011;54448;51.472;-2.574;2023-04-24T14:24:57;7.63;;;4.60;;
67665;SDS011;54448;51.472;-2.574;2023-04-24T14:27:23;11.18;;;4.30;;
67665;SDS011;54448;51.472;-2.574;2023-04-24T14:29:50;7.30;;;4.10;;